createdAt,value
2022-12-04T00:00:01.383Z,86.80
2022-12-04T00:01:01.378Z,86.80
2022-12-04T00:02:01.364Z,86.49
2022-12-04T00:03:01.409Z,86.38
2022-12-04T00:04:01.361Z,86.38
2022-12-04T00:05:01.413Z,86.07
2022-12-04T00:06:01.321Z,85.97
2022-12-04T00:07:01.315Z,86.07
2022-12-04T00:08:01.376Z,86.28
2022-12-04T00:09:01.327Z,86.28
2022-12-04T00:10:01.270Z,86.38
2022-12-04T00:11:01.269Z,86.38
2022-12-04T00:12:01.252Z,86.07
2022-12-04T00:13:01.244Z,86.07
2022-12-04T00:14:06.442Z,86.18
2022-12-04T00:15:24.557Z,85.97
2022-12-04T00:16:01.324Z,85.97
2022-12-04T00:17:01.222Z,85.76
2022-12-04T00:18:01.198Z,85.44
2022-12-04T00:19:01.176Z,85.76
2022-12-04T00:20:01.181Z,85.76
2022-12-04T00:21:01.157Z,85.97
2022-12-04T00:22:01.154Z,85.97
2022-12-04T00:23:01.145Z,86.07
2022-12-04T00:24:01.124Z,86.07
2022-12-04T00:25:01.123Z,86.07
2022-12-04T00:26:01.148Z,86.59
2022-12-04T00:27:01.113Z,86.18
2022-12-04T00:28:01.108Z,86.07
2022-12-04T00:29:01.081Z,86.07
2022-12-04T00:30:01.083Z,86.28
2022-12-04T00:31:01.078Z,86.28
2022-12-04T00:32:01.171Z,86.43
2022-12-04T00:33:01.066Z,86.74
2022-12-04T00:34:02.153Z,87.12
2022-12-04T00:35:01.006Z,87.15
2022-12-04T00:36:01.003Z,87.15
2022-12-04T00:37:01.013Z,87.26
2022-12-04T00:38:00.983Z,87.05
2022-12-04T00:39:00.970Z,87.05
2022-12-04T00:40:00.978Z,87.22
2022-12-04T00:41:00.983Z,87.12
2022-12-04T00:42:00.958Z,87.12
2022-12-04T00:43:00.966Z,87.22
2022-12-04T00:44:00.944Z,87.01
2022-12-04T00:45:00.934Z,86.59
2022-12-04T00:46:01.024Z,86.38
2022-12-04T00:47:00.901Z,86.18
2022-12-04T00:48:00.910Z,86.49
2022-12-04T00:49:00.890Z,86.59
2022-12-04T00:50:00.876Z,86.80
2022-12-04T00:51:00.863Z,86.91
2022-12-04T00:52:00.866Z,86.69
2022-12-04T00:53:00.850Z,86.69
2022-12-04T00:54:00.856Z,86.80
2022-12-04T00:55:00.815Z,86.69
2022-12-04T00:56:00.869Z,86.59
2022-12-04T00:57:00.815Z,86.59
2022-12-04T00:58:00.813Z,86.91
2022-12-04T00:59:00.804Z,87.22
2022-12-04T01:00:00.792Z,87.22
2022-12-04T01:01:00.870Z,87.22
2022-12-04T01:02:00.760Z,87.12
2022-12-04T01:03:00.814Z,87.32
2022-12-04T01:04:00.741Z,87.53
2022-12-04T01:05:00.763Z,87.84
2022-12-04T01:06:00.738Z,87.95
2022-12-04T01:07:05.017Z,87.95
2022-12-04T01:08:00.734Z,87.84
2022-12-04T01:09:00.701Z,87.53
2022-12-04T01:10:00.677Z,87.53
2022-12-04T01:11:00.700Z,87.74
2022-12-04T01:12:00.660Z,87.95
2022-12-04T01:13:00.638Z,87.95
2022-12-04T01:14:00.632Z,88.20
2022-12-04T01:15:00.619Z,88.41
2022-12-04T01:16:00.671Z,88.41
2022-12-04T01:17:00.740Z,88.41
2022-12-04T01:18:00.595Z,88.30
2022-12-04T01:19:00.577Z,88.30
2022-12-04T01:20:00.570Z,88.51
2022-12-04T01:21:00.576Z,88.51
2022-12-04T01:22:00.610Z,88.51
2022-12-04T01:23:00.540Z,88.20
2022-12-04T01:24:00.550Z,88.09
2022-12-04T01:25:00.535Z,88.09
2022-12-04T01:26:00.522Z,88.20
2022-12-04T01:27:00.522Z,88.20
2022-12-04T01:28:00.569Z,88.30
2022-12-04T01:29:00.480Z,88.41
2022-12-04T01:30:00.466Z,88.41
2022-12-04T01:31:00.466Z,88.30
2022-12-04T01:32:00.540Z,88.30
2022-12-04T01:33:00.442Z,88.30
2022-12-04T01:34:00.458Z,88.09
2022-12-04T01:35:00.415Z,87.88
2022-12-04T01:36:00.414Z,87.88
2022-12-04T01:37:00.418Z,87.78
2022-12-04T01:38:00.407Z,87.88
2022-12-04T01:39:00.408Z,87.78
2022-12-04T01:40:00.434Z,87.68
2022-12-04T01:41:00.381Z,87.26
2022-12-04T01:42:00.355Z,87.78
2022-12-04T01:43:00.355Z,87.68
2022-12-04T01:44:00.479Z,87.78
2022-12-04T01:45:00.315Z,87.88
2022-12-04T01:46:00.546Z,87.99
2022-12-04T01:47:00.316Z,87.78
2022-12-04T01:48:00.285Z,88.09
2022-12-04T01:49:00.288Z,88.30
2022-12-04T01:50:00.312Z,88.30
2022-12-04T01:51:00.289Z,88.41
2022-12-04T01:52:00.318Z,88.51
2022-12-04T01:53:00.237Z,88.20
2022-12-04T01:54:00.231Z,88.41
2022-12-04T01:55:00.221Z,88.41
2022-12-04T01:56:00.212Z,88.51
2022-12-04T01:57:00.192Z,88.65
2022-12-04T01:58:00.224Z,88.65
2022-12-04T01:59:00.172Z,89.18
2022-12-04T02:00:00.176Z,88.97
2022-12-04T02:02:27.459Z,88.87
2022-12-04T02:02:32.481Z,88.62
2022-12-04T02:03:32.478Z,88.62
2022-12-04T02:04:32.431Z,88.41
2022-12-04T02:05:32.448Z,88.20
2022-12-04T02:06:32.404Z,88.30
2022-12-04T02:07:32.477Z,88.20
2022-12-04T02:08:32.640Z,88.30
2022-12-04T02:09:32.385Z,88.45
2022-12-04T02:10:32.374Z,88.45
2022-12-04T02:11:32.349Z,88.55
2022-12-04T02:12:32.336Z,88.45
2022-12-04T02:13:32.342Z,88.55
2022-12-04T02:14:32.366Z,88.45
2022-12-04T02:15:32.315Z,88.34
2022-12-04T02:16:32.415Z,88.34
2022-12-04T02:17:32.315Z,88.24
2022-12-04T02:18:32.286Z,88.24
2022-12-04T02:19:32.302Z,88.24
2022-12-04T02:20:32.273Z,88.24
2022-12-04T02:21:32.286Z,88.34
2022-12-04T02:22:32.234Z,88.45
2022-12-04T02:23:32.241Z,88.51
2022-12-04T02:24:32.238Z,88.41
2022-12-04T02:25:32.264Z,88.20
2022-12-04T02:26:32.218Z,88.30
2022-12-04T02:27:32.201Z,88.20
2022-12-04T02:28:32.197Z,88.30
2022-12-04T02:29:32.199Z,88.20
2022-12-04T02:30:32.274Z,88.20
2022-12-04T02:31:32.194Z,88.20
2022-12-04T02:32:32.142Z,88.09
2022-12-04T02:33:32.137Z,88.13
2022-12-04T02:34:32.117Z,88.24
2022-12-04T02:35:32.109Z,88.51
2022-12-04T02:36:32.131Z,88.51
2022-12-04T02:37:32.115Z,88.34
2022-12-04T02:38:32.081Z,88.20
2022-12-04T02:39:32.172Z,88.20
2022-12-04T02:40:32.071Z,88.55
2022-12-04T02:41:32.078Z,88.55
2022-12-04T02:42:32.101Z,88.30
2022-12-04T02:43:32.046Z,88.24
2022-12-04T02:44:32.048Z,88.30
2022-12-04T02:45:32.408Z,88.41
2022-12-04T02:46:32.069Z,88.41
2022-12-04T02:47:32.011Z,88.30
2022-12-04T02:48:31.998Z,88.09
2022-12-04T02:49:31.986Z,87.99
2022-12-04T02:50:32.077Z,88.09
2022-12-04T02:51:31.946Z,88.09
2022-12-04T02:52:32.021Z,88.09
2022-12-04T02:53:31.996Z,88.20
2022-12-04T02:54:31.948Z,88.20
2022-12-04T02:55:31.941Z,88.20
2022-12-04T02:56:31.899Z,88.30
2022-12-04T02:57:31.927Z,88.30
2022-12-04T02:58:31.884Z,88.51
2022-12-04T02:59:31.884Z,88.24
2022-12-04T03:00:31.872Z,88.34
2022-12-04T03:01:31.975Z,88.62
2022-12-04T03:02:32.045Z,88.62
2022-12-04T03:03:31.835Z,88.51
2022-12-04T03:04:31.899Z,88.41
2022-12-04T03:05:31.835Z,88.51
2022-12-04T03:06:31.814Z,88.51
2022-12-04T03:07:31.948Z,88.51
2022-12-04T03:08:31.783Z,88.41
2022-12-04T03:09:31.781Z,88.30
2022-12-04T03:10:31.778Z,88.45
2022-12-04T03:11:31.767Z,88.51
2022-12-04T03:12:31.752Z,88.76
2022-12-04T03:13:31.738Z,88.76
2022-12-04T03:14:31.760Z,88.76
2022-12-04T03:15:31.731Z,88.76
2022-12-04T03:16:31.783Z,88.76
2022-12-04T03:17:31.695Z,88.65
2022-12-04T03:18:31.704Z,88.87
2022-12-04T03:19:31.766Z,88.97
2022-12-04T03:20:31.664Z,89.07
2022-12-04T03:21:31.675Z,89.07
2022-12-04T03:22:31.651Z,88.97
2022-12-04T03:23:31.642Z,88.87
2022-12-04T03:24:32.082Z,88.87
2022-12-04T03:25:31.608Z,88.87
2022-12-04T03:26:31.631Z,88.97
2022-12-04T03:27:31.594Z,88.97
2022-12-04T03:28:31.769Z,89.07
2022-12-04T03:29:31.603Z,89.28
2022-12-04T03:30:31.619Z,89.39
2022-12-04T03:31:31.597Z,89.39
2022-12-04T03:32:31.568Z,89.49
2022-12-04T03:33:31.555Z,89.28
2022-12-04T03:34:31.537Z,89.18
2022-12-04T03:35:31.518Z,89.18
2022-12-04T03:36:31.532Z,89.28
2022-12-04T03:37:31.498Z,89.49
2022-12-04T03:38:31.473Z,89.59
2022-12-04T03:39:31.484Z,89.59
2022-12-04T03:40:31.466Z,89.59
2022-12-04T03:41:31.474Z,89.70
2022-12-04T03:42:31.445Z,89.70
2022-12-04T03:43:31.456Z,89.59
2022-12-04T03:44:31.438Z,89.81
2022-12-04T03:45:31.432Z,89.81
2022-12-04T03:46:31.521Z,89.59
2022-12-04T03:47:31.400Z,89.59
2022-12-04T03:48:31.397Z,89.59
2022-12-04T03:49:31.394Z,89.34
2022-12-04T03:50:31.368Z,89.24
2022-12-04T03:51:31.386Z,89.45
2022-12-04T03:52:31.348Z,89.34
2022-12-04T03:53:31.350Z,89.34
2022-12-04T03:54:31.317Z,89.45
2022-12-04T03:55:31.332Z,89.34
2022-12-04T03:56:31.354Z,89.34
2022-12-04T03:57:31.308Z,89.24
2022-12-04T03:58:31.305Z,89.14
2022-12-04T03:59:31.293Z,89.24
2022-12-04T04:00:31.266Z,89.03
2022-12-04T04:01:31.380Z,89.24
2022-12-04T04:02:31.337Z,89.24
2022-12-04T04:03:31.238Z,89.14
2022-12-04T04:04:31.222Z,88.82
2022-12-04T04:05:31.222Z,88.82
2022-12-04T04:06:31.192Z,88.72
2022-12-04T04:07:35.354Z,88.62
2022-12-04T04:08:31.254Z,88.62
2022-12-04T04:09:31.182Z,88.82
2022-12-04T04:10:31.178Z,88.82
2022-12-04T04:11:31.183Z,88.82
2022-12-04T04:12:31.434Z,89.24
2022-12-04T04:13:31.167Z,89.03
2022-12-04T04:14:31.134Z,89.14
2022-12-04T04:15:31.334Z,89.24
2022-12-04T04:16:31.099Z,89.24
2022-12-04T04:17:36.597Z,89.14
2022-12-04T04:18:31.135Z,88.93
2022-12-04T04:19:31.073Z,88.82
2022-12-04T04:20:31.066Z,89.03
2022-12-04T04:21:31.053Z,88.82
2022-12-04T04:22:31.044Z,88.82
2022-12-04T04:23:31.110Z,88.62
2022-12-04T04:24:31.066Z,88.62
2022-12-04T04:25:31.288Z,88.51
2022-12-04T04:26:31.015Z,88.62
2022-12-04T04:27:31.013Z,88.51
2022-12-04T04:28:30.993Z,88.20
2022-12-04T04:29:31.010Z,88.41
2022-12-04T04:30:30.959Z,88.51
2022-12-04T04:31:31.000Z,88.51
2022-12-04T04:32:31.197Z,88.30
2022-12-04T04:33:30.946Z,87.99
2022-12-04T04:34:30.935Z,88.09
2022-12-04T04:35:30.951Z,87.88
2022-12-04T04:36:30.903Z,87.99
2022-12-04T04:37:31.043Z,87.99
2022-12-04T04:38:30.900Z,88.09
2022-12-04T04:39:30.890Z,87.99
2022-12-04T04:40:30.884Z,87.99
2022-12-04T04:41:31.074Z,87.99
2022-12-04T04:42:30.842Z,88.20
2022-12-04T04:43:30.826Z,88.41
2022-12-04T04:44:30.823Z,88.41
2022-12-04T04:45:30.812Z,88.09
2022-12-04T04:46:30.873Z,88.09
2022-12-04T04:47:30.826Z,88.20
2022-12-04T04:48:30.785Z,88.09
2022-12-04T04:49:30.776Z,87.99
2022-12-04T04:50:30.761Z,87.99
2022-12-04T04:51:30.772Z,88.09
2022-12-04T04:52:30.909Z,88.09
2022-12-04T04:53:30.786Z,87.99
2022-12-04T04:54:30.745Z,87.57
2022-12-04T04:55:30.744Z,87.88
2022-12-04T04:56:30.715Z,87.88
2022-12-04T04:57:30.703Z,87.78
2022-12-04T04:58:30.680Z,87.68
2022-12-04T04:59:30.695Z,87.47
2022-12-04T05:00:30.683Z,87.68
2022-12-04T05:01:30.748Z,87.78
2022-12-04T05:02:30.715Z,87.88
2022-12-04T05:03:30.639Z,87.57
2022-12-04T05:04:30.644Z,87.57
2022-12-04T05:05:30.612Z,87.57
2022-12-04T05:06:30.604Z,87.68
2022-12-04T05:07:30.982Z,87.74
2022-12-04T05:08:30.585Z,87.78
2022-12-04T05:09:30.570Z,87.53
2022-12-04T05:10:30.567Z,87.57
2022-12-04T05:11:30.551Z,87.74
2022-12-04T05:12:30.560Z,87.63
2022-12-04T05:13:30.538Z,87.43
2022-12-04T05:14:30.562Z,87.53
2022-12-04T05:15:30.510Z,87.53
2022-12-04T05:16:30.699Z,87.74
2022-12-04T05:17:30.497Z,87.63
2022-12-04T05:18:30.483Z,87.63
2022-12-04T05:19:30.516Z,87.63
2022-12-04T05:20:30.467Z,87.53
2022-12-04T05:21:30.443Z,87.53
2022-12-04T05:22:30.436Z,87.43
2022-12-04T05:23:30.428Z,87.43
2022-12-04T05:24:30.404Z,87.22
2022-12-04T05:25:30.623Z,87.12
2022-12-04T05:26:30.395Z,87.43
2022-12-04T05:27:30.402Z,87.43
2022-12-04T05:28:30.397Z,87.22
2022-12-04T05:29:35.594Z,87.32
2022-12-04T05:30:30.364Z,87.32
2022-12-04T05:31:30.437Z,87.32
2022-12-04T05:32:30.637Z,87.22
2022-12-04T05:33:30.313Z,86.80
2022-12-04T05:34:30.304Z,87.22
2022-12-04T05:35:30.300Z,87.63
2022-12-04T05:36:30.333Z,87.22
2022-12-04T05:37:30.300Z,87.37
2022-12-04T05:38:30.279Z,87.47
2022-12-04T05:39:30.267Z,87.15
2022-12-04T05:40:30.260Z,87.37
2022-12-04T05:41:30.311Z,87.26
2022-12-04T05:42:30.290Z,87.26
2022-12-04T05:43:30.236Z,87.37
2022-12-04T05:44:30.224Z,87.05
2022-12-04T05:45:30.211Z,87.05
2022-12-04T05:46:30.251Z,87.15
2022-12-04T05:47:30.215Z,87.26
2022-12-04T05:48:30.161Z,87.26
2022-12-04T05:49:30.166Z,87.26
2022-12-04T05:50:30.150Z,86.94
2022-12-04T05:51:30.151Z,86.84
2022-12-04T05:52:30.168Z,87.26
2022-12-04T05:53:30.150Z,87.47
2022-12-04T05:54:30.117Z,87.78
2022-12-04T05:55:30.120Z,87.99
2022-12-04T05:56:30.104Z,87.78
2022-12-04T05:57:30.299Z,87.47
2022-12-04T05:58:30.094Z,87.40
2022-12-04T05:59:30.084Z,87.40
2022-12-04T06:00:30.049Z,87.40
2022-12-04T06:01:30.032Z,87.61
2022-12-04T06:02:30.285Z,87.71
2022-12-04T06:03:30.119Z,87.71
2022-12-04T06:04:30.026Z,87.30
2022-12-04T06:05:30.020Z,87.40
2022-12-04T06:06:30.000Z,87.40
2022-12-04T06:07:30.050Z,87.71
2022-12-04T06:08:29.976Z,87.71
2022-12-04T06:09:29.976Z,87.61
2022-12-04T06:10:29.952Z,87.82
2022-12-04T06:11:29.951Z,87.82
2022-12-04T06:12:30.977Z,87.71
2022-12-04T06:13:29.921Z,87.71
2022-12-04T06:14:32.667Z,87.57
2022-12-04T06:15:29.912Z,87.68
2022-12-04T06:16:30.056Z,87.47
2022-12-04T06:17:29.887Z,87.26
2022-12-04T06:18:29.875Z,87.19
2022-12-04T06:19:29.902Z,87.40
2022-12-04T06:20:29.905Z,87.71
2022-12-04T06:21:29.865Z,87.82
2022-12-04T06:22:29.834Z,87.78
2022-12-04T06:23:29.831Z,87.88
2022-12-04T06:24:29.845Z,87.88
2022-12-04T06:25:29.811Z,87.68
2022-12-04T06:26:30.159Z,87.57
2022-12-04T06:27:29.786Z,87.37
2022-12-04T06:28:29.764Z,87.26
2022-12-04T06:29:29.772Z,87.26
2022-12-04T06:30:29.777Z,87.26
2022-12-04T06:31:29.896Z,87.15
2022-12-04T06:32:29.876Z,87.05
2022-12-04T06:33:29.758Z,86.74
2022-12-04T06:34:29.722Z,86.53
2022-12-04T06:35:29.741Z,86.43
2022-12-04T06:36:29.729Z,86.43
2022-12-04T06:37:29.691Z,86.32
2022-12-04T06:38:29.696Z,86.32
2022-12-04T06:39:29.667Z,86.32
2022-12-04T06:40:29.664Z,86.21
2022-12-04T06:41:29.911Z,86.28
2022-12-04T06:42:29.628Z,86.38
2022-12-04T06:43:29.639Z,86.43
2022-12-04T06:44:29.625Z,86.11
2022-12-04T06:45:29.679Z,86.21
2022-12-04T06:46:29.672Z,86.43
2022-12-04T06:47:29.765Z,86.84
2022-12-04T06:48:29.607Z,87.05
2022-12-04T06:49:29.576Z,87.05
2022-12-04T06:50:29.557Z,86.94
2022-12-04T06:51:29.607Z,87.05
2022-12-04T06:52:29.523Z,86.94
2022-12-04T06:53:29.768Z,86.94
2022-12-04T06:54:29.503Z,86.94
2022-12-04T06:55:29.509Z,86.84
2022-12-04T06:56:29.512Z,86.74
2022-12-04T06:57:29.518Z,86.94
2022-12-04T06:58:29.479Z,87.15
2022-12-04T06:59:29.481Z,86.94
2022-12-04T07:00:29.445Z,86.74
2022-12-04T07:01:29.523Z,86.74
2022-12-04T07:02:29.538Z,86.84
2022-12-04T07:03:29.441Z,87.05
2022-12-04T07:04:29.417Z,86.84
2022-12-04T07:05:29.421Z,87.05
2022-12-04T07:06:29.408Z,87.19
2022-12-04T07:07:29.481Z,87.15
2022-12-04T07:08:29.489Z,87.05
2022-12-04T07:09:29.385Z,87.15
2022-12-04T07:10:29.350Z,87.30
2022-12-04T07:11:29.364Z,87.51
2022-12-04T07:12:29.440Z,87.57
2022-12-04T07:13:29.378Z,87.78
2022-12-04T07:14:29.315Z,87.78
2022-12-04T07:15:29.326Z,87.47
2022-12-04T07:16:29.400Z,86.94
2022-12-04T07:17:29.298Z,86.67
2022-12-04T07:18:29.271Z,86.88
2022-12-04T07:19:29.333Z,87.09
2022-12-04T07:20:29.284Z,87.30
2022-12-04T07:21:29.256Z,87.40
2022-12-04T07:22:29.249Z,87.51
2022-12-04T07:23:29.230Z,87.61
2022-12-04T07:24:29.377Z,87.51
2022-12-04T07:25:29.223Z,87.51
2022-12-04T07:26:29.196Z,87.51
2022-12-04T07:27:29.192Z,87.40
2022-12-04T07:28:29.190Z,87.51
2022-12-04T07:29:29.182Z,87.51
2022-12-04T07:30:29.186Z,87.71
2022-12-04T07:31:29.339Z,88.13
2022-12-04T07:32:29.154Z,88.24
2022-12-04T07:33:29.136Z,88.34
2022-12-04T07:34:29.127Z,88.20
2022-12-04T07:35:29.135Z,87.88
2022-12-04T07:36:29.129Z,87.57
2022-12-04T07:37:29.092Z,87.26
2022-12-04T07:38:29.094Z,87.15
2022-12-04T07:39:29.077Z,87.47
2022-12-04T07:40:29.075Z,87.15
2022-12-04T07:41:29.048Z,87.37
2022-12-04T07:42:29.065Z,87.26
2022-12-04T07:43:29.015Z,87.05
2022-12-04T07:44:29.023Z,87.15
2022-12-04T07:45:29.047Z,86.63
2022-12-04T07:46:29.092Z,86.63
2022-12-04T07:47:29.016Z,86.74
2022-12-04T07:48:33.294Z,86.84
2022-12-04T07:49:28.991Z,86.94
2022-12-04T07:50:28.983Z,86.94
2022-12-04T07:51:28.963Z,86.21
2022-12-04T07:52:28.938Z,86.43
2022-12-04T07:53:28.933Z,86.74
2022-12-04T07:54:28.951Z,87.05
2022-12-04T07:55:28.894Z,86.74
2022-12-04T07:56:28.910Z,86.53
2022-12-04T07:57:28.883Z,86.43
2022-12-04T07:58:28.890Z,86.43
2022-12-04T07:59:28.881Z,86.43
2022-12-04T08:00:28.885Z,86.53
2022-12-04T08:01:29.055Z,86.53
2022-12-04T08:02:29.087Z,86.84
2022-12-04T08:03:28.839Z,87.05
2022-12-04T08:04:28.904Z,87.09
2022-12-04T08:05:29.009Z,87.19
2022-12-04T08:06:28.788Z,87.26
2022-12-04T08:07:28.823Z,87.37
2022-12-04T08:08:28.803Z,87.19
2022-12-04T08:09:28.757Z,87.51
2022-12-04T08:10:28.852Z,87.47
2022-12-04T08:11:28.771Z,87.47
2022-12-04T08:12:28.737Z,87.68
2022-12-04T08:13:28.725Z,87.15
2022-12-04T08:14:28.710Z,87.15
2022-12-04T08:15:28.713Z,87.19
2022-12-04T08:16:28.736Z,87.40
2022-12-04T08:17:28.776Z,87.30
2022-12-04T08:18:28.800Z,87.51
2022-12-04T08:19:28.678Z,87.37
2022-12-04T08:20:28.708Z,87.15
2022-12-04T08:21:28.657Z,87.15
2022-12-04T08:22:28.684Z,87.57
2022-12-04T08:23:28.621Z,87.57
2022-12-04T08:24:28.617Z,87.57
2022-12-04T08:25:28.598Z,87.15
2022-12-04T08:26:28.583Z,87.37
2022-12-04T08:27:28.578Z,87.47
2022-12-04T08:28:28.637Z,87.57
2022-12-04T08:29:28.550Z,86.94
2022-12-04T08:30:28.592Z,87.15
2022-12-04T08:31:28.596Z,87.26
2022-12-04T08:32:28.546Z,86.74
2022-12-04T08:33:28.527Z,86.84
2022-12-04T08:34:28.516Z,86.94
2022-12-04T08:35:28.514Z,87.15
2022-12-04T08:36:28.498Z,86.80
2022-12-04T08:37:28.513Z,86.69
2022-12-04T08:38:28.480Z,86.91
2022-12-04T08:39:28.475Z,86.91
2022-12-04T08:40:28.532Z,86.91
2022-12-04T08:41:28.443Z,87.01
2022-12-04T08:42:28.431Z,87.01
2022-12-04T08:43:28.440Z,87.01
2022-12-04T08:44:28.495Z,86.91
2022-12-04T08:45:28.403Z,86.91
2022-12-04T08:46:28.527Z,86.80
2022-12-04T08:47:28.385Z,86.69
2022-12-04T08:48:28.372Z,86.69
2022-12-04T08:49:28.375Z,86.59
2022-12-04T08:50:28.415Z,86.69
2022-12-04T08:51:28.333Z,86.80
2022-12-04T08:52:28.318Z,86.69
2022-12-04T08:53:28.303Z,86.55
2022-12-04T08:54:32.982Z,86.03
2022-12-04T08:55:28.291Z,85.86
2022-12-04T08:56:28.297Z,86.28
2022-12-04T08:57:28.275Z,86.49
2022-12-04T08:58:28.263Z,85.97
2022-12-04T08:59:28.296Z,86.28
2022-12-04T09:00:28.307Z,86.49
2022-12-04T09:01:28.303Z,86.49
2022-12-04T09:02:28.241Z,86.69
2022-12-04T09:03:31.033Z,86.38
2022-12-04T09:04:28.275Z,86.59
2022-12-04T09:05:28.205Z,86.59
2022-12-04T09:06:28.178Z,86.69
2022-12-04T09:07:28.220Z,86.59
2022-12-04T09:08:28.190Z,86.59
2022-12-04T09:09:28.142Z,86.49
2022-12-04T09:10:28.175Z,85.65
2022-12-04T09:11:28.130Z,85.44
2022-12-04T09:12:28.132Z,85.97
2022-12-04T09:13:28.373Z,86.07
2022-12-04T09:14:28.100Z,85.97
2022-12-04T09:15:28.152Z,86.18
2022-12-04T09:16:28.179Z,85.93
2022-12-04T09:17:28.054Z,86.55
2022-12-04T09:18:28.043Z,86.03
2022-12-04T09:19:28.042Z,85.93
2022-12-04T09:20:28.036Z,86.03
2022-12-04T09:21:28.086Z,85.51
2022-12-04T09:22:40.518Z,85.10
2022-12-04T09:23:28.059Z,85.51
2022-12-04T09:24:28.011Z,85.82
2022-12-04T09:25:27.995Z,86.35
2022-12-04T09:26:28.003Z,85.82
2022-12-04T09:27:27.985Z,85.72
2022-12-04T09:28:27.966Z,85.30
2022-12-04T09:29:27.929Z,85.41
2022-12-04T09:30:27.930Z,85.51
2022-12-04T09:31:28.068Z,85.72
2022-12-04T09:32:28.101Z,85.82
2022-12-04T09:33:27.887Z,85.68
2022-12-04T09:34:27.888Z,85.47
2022-12-04T09:35:27.870Z,85.26
2022-12-04T09:36:27.891Z,85.16
2022-12-04T09:37:27.860Z,85.10
2022-12-04T09:38:27.948Z,85.41
2022-12-04T09:39:27.852Z,85.58
2022-12-04T09:40:35.283Z,85.68
2022-12-04T09:41:27.863Z,85.68
2022-12-04T09:42:27.859Z,85.78
2022-12-04T09:43:27.812Z,85.89
2022-12-04T09:44:28.042Z,85.41
2022-12-04T09:45:27.777Z,85.82
2022-12-04T09:46:27.828Z,86.55
2022-12-04T09:47:27.756Z,86.61
2022-12-04T09:48:27.765Z,86.61
2022-12-04T09:49:28.048Z,86.72
2022-12-04T09:50:28.038Z,86.83
2022-12-04T09:51:27.731Z,86.83
2022-12-04T09:52:27.715Z,86.51
2022-12-04T09:53:27.703Z,85.74
2022-12-04T09:54:27.686Z,85.74
2022-12-04T09:55:27.715Z,85.96
2022-12-04T09:56:27.672Z,85.96
2022-12-04T09:57:27.656Z,85.43
2022-12-04T09:58:27.646Z,85.33
2022-12-04T09:59:27.652Z,85.74
2022-12-04T10:00:27.643Z,85.74
2022-12-04T10:01:27.641Z,86.16
2022-12-04T10:02:27.734Z,85.64
2022-12-04T10:03:27.835Z,85.74
2022-12-04T10:04:27.709Z,85.74
2022-12-04T10:05:27.592Z,85.53
2022-12-04T10:06:27.620Z,85.33
2022-12-04T10:07:27.597Z,84.91
2022-12-04T10:08:27.554Z,85.02
2022-12-04T10:09:27.534Z,85.22
2022-12-04T10:10:27.517Z,85.39
2022-12-04T10:11:32.346Z,85.08
2022-12-04T10:12:27.531Z,85.19
2022-12-04T10:13:27.535Z,85.08
2022-12-04T10:14:27.497Z,84.98
2022-12-04T10:15:27.476Z,84.87
2022-12-04T10:16:27.568Z,83.31
2022-12-04T10:17:32.532Z,83.94
2022-12-04T10:18:27.470Z,84.04
2022-12-04T10:19:27.457Z,83.62
2022-12-04T10:20:27.432Z,83.94
2022-12-04T10:21:27.438Z,84.35
2022-12-04T10:22:27.634Z,83.52
2022-12-04T10:23:27.392Z,83.73
2022-12-04T10:24:27.409Z,84.21
2022-12-04T10:25:27.396Z,84.21
2022-12-04T10:26:27.389Z,84.21
2022-12-04T10:27:27.354Z,83.80
2022-12-04T10:28:27.375Z,83.48
2022-12-04T10:29:27.355Z,83.27
2022-12-04T10:30:27.342Z,83.17
2022-12-04T10:31:27.422Z,83.80
2022-12-04T10:32:27.318Z,84.42
2022-12-04T10:33:27.311Z,84.25
2022-12-04T10:34:27.295Z,84.14
2022-12-04T10:35:27.273Z,84.25
2022-12-04T10:36:27.266Z,84.35
2022-12-04T10:37:27.252Z,84.31
2022-12-04T10:38:27.260Z,84.31
2022-12-04T10:39:27.254Z,84.63
2022-12-04T10:40:27.237Z,84.52
2022-12-04T10:41:27.220Z,84.77
2022-12-04T10:42:27.246Z,84.63
2022-12-04T10:43:27.208Z,84.63
2022-12-04T10:44:27.246Z,84.73
2022-12-04T10:45:27.182Z,84.83
2022-12-04T10:46:27.284Z,85.04
2022-12-04T10:47:27.163Z,85.25
2022-12-04T10:48:27.148Z,85.46
2022-12-04T10:49:27.124Z,85.14
2022-12-04T10:50:27.166Z,84.73
2022-12-04T10:51:27.141Z,84.63
2022-12-04T10:52:27.128Z,84.73
2022-12-04T10:53:27.100Z,84.87
2022-12-04T10:54:27.102Z,84.66
2022-12-04T10:55:27.094Z,84.87
2022-12-04T10:56:27.089Z,84.94
2022-12-04T10:57:27.048Z,84.83
2022-12-04T10:58:27.041Z,84.94
2022-12-04T10:59:27.036Z,85.08
2022-12-04T11:00:27.097Z,84.87
2022-12-04T11:01:27.331Z,84.56
2022-12-04T11:02:27.408Z,84.94
2022-12-04T11:03:27.119Z,85.25
2022-12-04T11:04:26.992Z,85.46
2022-12-04T11:05:26.990Z,85.14
2022-12-04T11:06:26.978Z,84.83
2022-12-04T11:07:27.209Z,84.63
2022-12-04T11:08:27.119Z,84.63
2022-12-04T11:09:26.942Z,84.94
2022-12-04T11:10:26.932Z,84.52
2022-12-04T11:11:26.906Z,84.63
2022-12-04T11:12:26.899Z,84.94
2022-12-04T11:13:26.886Z,84.73
2022-12-04T11:14:26.925Z,84.59
2022-12-04T11:15:26.875Z,84.59
2022-12-04T11:16:27.113Z,84.90
2022-12-04T11:17:26.884Z,84.48
2022-12-04T11:18:26.862Z,83.86
2022-12-04T11:19:26.846Z,84.38
2022-12-04T11:20:26.866Z,84.59
2022-12-04T11:21:26.812Z,84.38
2022-12-04T11:22:26.798Z,84.48
2022-12-04T11:23:26.781Z,84.38
2022-12-04T11:24:26.777Z,84.48
2022-12-04T11:25:26.775Z,84.48
2022-12-04T11:26:26.855Z,84.38
2022-12-04T11:27:26.780Z,84.59
2022-12-04T11:28:41.169Z,85.11
2022-12-04T11:29:26.772Z,85.52
2022-12-04T11:30:26.731Z,84.59
2022-12-04T11:31:26.797Z,84.27
2022-12-04T11:32:26.744Z,84.48
2022-12-04T11:33:26.725Z,84.17
2022-12-04T11:34:26.674Z,83.75
2022-12-04T11:35:26.667Z,84.27
2022-12-04T11:36:26.680Z,84.48
2022-12-04T11:37:26.653Z,84.38
2022-12-04T11:38:26.689Z,84.48
2022-12-04T11:39:26.634Z,84.06
2022-12-04T11:40:26.620Z,84.59
2022-12-04T11:41:26.613Z,84.48
2022-12-04T11:42:26.615Z,84.73
2022-12-04T11:43:26.655Z,84.83
2022-12-04T11:44:26.604Z,84.83
2022-12-04T11:45:26.596Z,85.11
2022-12-04T11:46:26.679Z,85.31
2022-12-04T11:47:26.569Z,85.21
2022-12-04T11:48:26.563Z,84.69
2022-12-04T11:49:26.568Z,84.69
2022-12-04T11:50:26.509Z,84.69
2022-12-04T11:51:26.516Z,84.38
2022-12-04T11:52:26.501Z,84.17
2022-12-04T11:53:26.489Z,84.59
2022-12-04T11:54:26.493Z,84.69
2022-12-04T11:55:29.110Z,84.59
2022-12-04T11:56:26.447Z,84.38
2022-12-04T11:57:26.448Z,84.06
2022-12-04T11:58:26.440Z,83.96
2022-12-04T11:59:26.441Z,83.96
2022-12-04T12:00:26.424Z,83.75
2022-12-04T12:01:26.438Z,83.34
2022-12-04T12:02:26.545Z,83.65
2022-12-04T12:03:26.682Z,83.86
2022-12-04T12:04:26.371Z,83.54
2022-12-04T12:05:26.381Z,83.75
2022-12-04T12:06:26.363Z,84.06
2022-12-04T12:07:26.383Z,84.17
2022-12-04T12:08:26.334Z,84.38
2022-12-04T12:09:26.331Z,84.59
2022-12-04T12:10:26.321Z,84.80
2022-12-04T12:11:26.322Z,84.90
2022-12-04T12:12:26.304Z,84.59
2022-12-04T12:13:26.316Z,84.06
2022-12-04T12:14:26.289Z,84.59
2022-12-04T12:15:26.277Z,84.80
2022-12-04T12:16:26.420Z,84.90
2022-12-04T12:17:26.264Z,84.90
2022-12-04T12:18:26.276Z,85.00
2022-12-04T12:19:26.242Z,84.69
2022-12-04T12:20:26.229Z,84.69
2022-12-04T12:21:26.228Z,84.69
2022-12-04T12:22:26.201Z,84.80
2022-12-04T12:23:26.200Z,85.11
2022-12-04T12:24:26.193Z,85.00
2022-12-04T12:25:26.171Z,84.69
2022-12-04T12:26:26.171Z,84.86
2022-12-04T12:27:26.163Z,84.75
2022-12-04T12:28:26.154Z,84.86
2022-12-04T12:29:26.282Z,84.86
2022-12-04T12:30:26.114Z,85.06
2022-12-04T12:31:26.203Z,85.38
2022-12-04T12:32:26.094Z,84.96
2022-12-04T12:33:26.096Z,84.96
2022-12-04T12:34:26.081Z,84.86
2022-12-04T12:35:26.101Z,84.44
2022-12-04T12:36:26.270Z,84.44
2022-12-04T12:37:26.048Z,84.86
2022-12-04T12:38:26.044Z,84.51
2022-12-04T12:39:26.044Z,84.51
2022-12-04T12:40:26.045Z,84.72
2022-12-04T12:41:26.016Z,84.30
2022-12-04T12:42:26.008Z,84.41
2022-12-04T12:43:26.073Z,84.61
2022-12-04T12:44:25.981Z,84.92
2022-12-04T12:45:26.014Z,84.03
2022-12-04T12:46:26.068Z,83.92
2022-12-04T12:47:25.945Z,84.03
2022-12-04T12:48:25.929Z,84.44
2022-12-04T12:49:25.934Z,84.65
2022-12-04T12:50:25.914Z,84.55
2022-12-04T12:51:30.397Z,84.86
2022-12-04T12:52:25.888Z,84.34